createdAt,value
2023-01-23T00:08:35.907Z,0.51
2023-01-23T00:18:40.149Z,0.95
2023-01-23T00:28:45.560Z,1.22
2023-01-23T00:38:49.797Z,1.84
2023-01-23T00:48:53.506Z,1.50
2023-01-23T00:58:58.343Z,1.12
2023-01-23T01:09:02.735Z,0.81
2023-01-23T01:19:06.583Z,0.81
2023-01-23T01:29:10.247Z,1.07
2023-01-23T01:39:13.897Z,1.00
2023-01-23T01:49:33.733Z,1.01
2023-01-23T02:00:11.093Z,1.19
2023-01-23T02:10:18.451Z,1.05
2023-01-23T02:20:28.973Z,0.96
2023-01-23T02:30:32.893Z,0.85
2023-01-23T02:40:42.491Z,0.86
2023-01-23T02:50:48.969Z,0.80
2023-01-23T03:00:52.845Z,0.84
2023-01-23T03:11:01.731Z,0.95
2023-01-23T03:21:08.087Z,0.90
2023-01-23T03:32:24.792Z,0.93
2023-01-23T03:42:34.981Z,0.96
2023-01-23T03:52:39.969Z,0.86
2023-01-23T04:02:46.972Z,0.75
2023-01-23T04:12:51.536Z,0.76
2023-01-23T04:22:55.594Z,0.63
2023-01-23T04:33:00.936Z,0.55
2023-01-23T04:43:08.579Z,0.54
2023-01-23T04:53:17.903Z,0.41
2023-01-23T05:03:22.708Z,0.37
2023-01-23T05:13:27.998Z,0.35
2023-01-23T05:23:31.918Z,0.41
2023-01-23T05:33:35.969Z,0.40
2023-01-23T05:43:41.968Z,0.36
2023-01-23T05:54:08.265Z,0.36
2023-01-23T06:04:16.430Z,0.32
2023-01-23T06:14:31.737Z,0.30
2023-01-23T06:24:35.785Z,0.46
2023-01-23T06:34:39.967Z,0.61
2023-01-23T06:44:48.199Z,0.70
2023-01-23T06:54:52.143Z,0.63
2023-01-23T07:04:56.462Z,0.67
2023-01-23T07:15:00.250Z,0.66
2023-01-23T07:25:12.347Z,0.90
2023-01-23T07:35:16.061Z,0.95
2023-01-23T07:45:19.810Z,0.76
2023-01-23T07:55:25.503Z,0.75
2023-01-23T08:05:30.534Z,0.94
2023-01-23T08:15:34.235Z,0.84
2023-01-23T08:25:39.523Z,0.74
2023-01-23T08:35:51.068Z,0.97
2023-01-23T08:45:59.555Z,1.09
2023-01-23T08:56:07.834Z,1.32
2023-01-23T09:06:13.071Z,1.87
2023-01-23T09:16:17.559Z,2.04
2023-01-23T09:26:21.342Z,2.47
2023-01-23T09:36:41.700Z,2.52
2023-01-23T09:46:55.380Z,2.77
2023-01-23T09:57:08.497Z,2.74
2023-01-23T10:07:28.811Z,2.95
2023-01-23T10:18:00.294Z,3.17
2023-01-23T10:28:22.855Z,3.37
2023-01-23T10:38:49.147Z,3.90
2023-01-23T11:00:02.615Z,3.98
2023-01-23T11:10:12.464Z,3.39
2023-01-23T11:20:32.289Z,2.77
2023-01-23T11:30:50.342Z,2.36
2023-01-23T11:40:54.057Z,2.32
2023-01-23T11:51:16.564Z,2.25
2023-01-23T12:01:32.524Z,1.73
2023-01-23T12:12:02.383Z,1.74
2023-01-23T12:22:16.613Z,1.64
2023-01-23T12:32:54.662Z,1.82
2023-01-23T12:43:14.768Z,1.83
2023-01-23T12:53:25.025Z,1.68
2023-01-23T13:03:46.619Z,1.63
2023-01-23T13:13:52.659Z,1.46
2023-01-23T13:24:47.005Z,1.34
2023-01-23T13:34:51.055Z,1.25
2023-01-23T13:45:21.459Z,1.40
2023-01-23T14:26:51.795Z,0.92
2023-01-23T14:37:04.740Z,0.80
2023-01-23T14:47:18.495Z,0.82
2023-01-23T14:57:24.639Z,0.75
2023-01-23T15:07:28.317Z,0.63
2023-01-23T15:17:33.477Z,0.91
2023-01-23T15:27:39.858Z,1.12
2023-01-23T15:37:49.880Z,0.96
2023-01-23T15:47:53.586Z,0.85
2023-01-23T15:57:57.262Z,0.83
2023-01-23T16:08:03.070Z,0.85
2023-01-23T16:18:06.892Z,1.02
2023-01-23T16:28:21.867Z,0.83
2023-01-23T16:38:30.333Z,0.61
2023-01-23T16:48:35.088Z,0.76
2023-01-23T16:58:41.273Z,0.79
2023-01-23T17:08:45.069Z,0.85
2023-01-23T17:18:50.568Z,0.85
2023-01-23T17:28:57.316Z,0.99
2023-01-23T17:39:01.923Z,0.84
2023-01-23T17:49:31.244Z,0.80
2023-01-23T17:59:35.064Z,0.88
2023-01-23T18:09:38.956Z,1.06
2023-01-23T18:19:43.327Z,1.05
2023-01-23T18:30:30.350Z,1.10
2023-01-23T18:41:10.821Z,1.39
2023-01-23T18:51:24.844Z,1.31
2023-01-23T19:01:40.985Z,1.08
2023-01-23T19:12:07.599Z,0.93
2023-01-23T19:22:17.748Z,0.96
2023-01-23T19:32:21.931Z,0.87
2023-01-23T19:42:35.916Z,1.06
2023-01-23T19:52:44.315Z,1.31
2023-01-23T20:02:48.289Z,1.20
2023-01-23T20:12:52.777Z,1.17
2023-01-23T20:22:56.573Z,1.42
2023-01-23T20:33:02.546Z,1.46
2023-01-23T20:43:06.456Z,1.34
2023-01-23T20:53:30.320Z,0.97
2023-01-23T21:03:39.200Z,0.85
2023-01-23T21:13:54.065Z,0.93
2023-01-23T21:23:57.816Z,0.80
2023-01-23T21:34:10.018Z,0.61
2023-01-23T21:44:14.292Z,0.53
2023-01-23T21:54:20.323Z,0.74
2023-01-23T22:04:24.223Z,0.88
2023-01-23T22:14:30.973Z,1.07
2023-01-23T22:24:34.545Z,1.08
2023-01-23T22:34:38.263Z,1.38
2023-01-23T22:44:43.525Z,1.50
2023-01-23T22:54:47.102Z,1.74
2023-01-23T23:04:51.895Z,1.93
2023-01-23T23:14:57.575Z,1.94
2023-01-23T23:25:01.143Z,1.97
2023-01-23T23:35:05.166Z,2.13
2023-01-23T23:45:09.361Z,2.26
2023-01-23T23:55:13.203Z,2.41
